Time;durP1;ratioP1;P1;durP2;ratioP2;P2;SDS_P1;SDS_P2;PMS_P1;PMS_P2;Temp;Humidity;BMP_temperature;BMP_pressure;BME280_temperature;BME280_humidity;BME280_pressure;Samples;Min_cycle;Max_cycle;Signal;HPM_P1;HPM_P2
2023/02/01 00:01:11;;;;;;;7.32;1.92;;;;;;;6.52;59.55;99771.06;5267501;27;20477;-88
2023/02/01 00:03:37;;;;;;;7.30;1.67;;;;;;;6.42;59.54;99776.38;5267432;27;20062;-87
2023/02/01 00:06:03;;;;;;;6.60;2.15;;;;;;;6.41;59.53;99777.25;5285184;27;20087;-87
2023/02/01 00:08:28;;;;;;;4.85;1.67;;;;;;;6.38;59.53;99777.28;5266927;27;20357;-85
2023/02/01 00:11:03;;;;;;;6.78;1.90;;;;;;;6.40;59.54;99774.69;5303135;27;20070;-87
2023/02/01 00:13:30;;;;;;;4.65;1.58;;;;;;;6.48;59.54;99780.59;5285613;27;20057;-87
2023/02/01 00:16:02;;;;;;;4.40;1.35;;;;;;;6.39;59.53;99775.56;5285582;27;20021;-86
2023/02/01 00:18:28;;;;;;;4.78;1.73;;;;;;;6.39;59.53;99760.91;5285474;27;20044;-85
2023/02/01 00:20:53;;;;;;;6.93;2.08;;;;;;;6.24;59.53;99766.28;5285241;27;20108;-87
2023/02/01 00:23:19;;;;;;;3.90;1.92;;;;;;;6.37;59.53;99757.47;5284949;27;20120;-86
2023/02/01 00:25:44;;;;;;;5.97;2.22;;;;;;;6.37;59.53;99762.63;5322605;27;20099;-86
2023/02/01 00:28:09;;;;;;;2.55;1.52;;;;;;;6.32;59.53;99758.41;5303317;27;20052;-86
2023/02/01 00:30:35;;;;;;;3.83;1.80;;;;;;;6.29;59.53;99764.50;5284978;27;20361;-87
2023/02/01 00:33:00;;;;;;;3.15;1.55;;;;;;;6.32;59.53;99761.00;5303374;27;20437;-86
2023/02/01 00:35:26;;;;;;;5.05;2.47;;;;;;;6.27;59.52;99758.50;5266354;27;20068;-86
2023/02/01 00:37:51;;;;;;;4.45;1.80;;;;;;;6.21;59.53;99765.47;5267194;27;20060;-86
2023/02/01 00:40:16;;;;;;;4.18;2.03;;;;;;;6.18;59.52;99762.94;5322890;27;20096;-86
2023/02/01 00:42:42;;;;;;;5.45;1.77;;;;;;;6.22;59.53;99762.88;5285002;27;20071;-87
2023/02/01 00:45:08;;;;;;;7.07;2.03;;;;;;;6.35;59.54;99763.53;5303900;27;20079;-86
2023/02/01 00:47:34;;;;;;;4.78;1.62;;;;;;;6.05;59.51;99764.81;5285957;27;20063;-85
2023/02/01 00:49:59;;;;;;;2.92;1.35;;;;;;;6.33;59.53;99768.72;5282214;27;20115;-86
2023/02/01 00:52:25;;;;;;;4.60;1.65;;;;;;;6.08;59.52;99764.78;5301513;27;20101;-86
2023/02/01 00:54:50;;;;;;;3.92;1.08;;;;;;;6.18;59.52;99755.19;5282576;27;20100;-86
2023/02/01 00:57:16;;;;;;;4.90;1.40;;;;;;;6.15;59.52;99756.94;5300484;27;20108;-86
2023/02/01 00:59:41;;;;;;;8.02;1.25;;;;;;;6.11;59.51;99751.81;5300494;27;20406;-86
2023/02/01 01:02:06;;;;;;;8.02;1.55;;;;;;;5.76;59.49;99757.44;5264227;27;20446;-86
2023/02/01 01:04:32;;;;;;;5.75;2.00;;;;;;;5.72;59.49;99748.87;5264040;27;20088;-87
2023/02/01 01:06:57;;;;;;;3.12;1.23;;;;;;;5.75;59.49;99746.25;5263871;27;21395;-86
2023/02/01 01:09:23;;;;;;;5.80;2.12;;;;;;;5.55;59.49;99728.41;5263972;27;20482;-87
2023/02/01 01:11:48;;;;;;;6.53;2.00;;;;;;;5.66;59.49;99730.00;5281863;27;20124;-86
2023/02/01 01:14:13;;;;;;;5.12;2.17;;;;;;;5.42;59.48;99723.38;5282015;27;20104;-86
2023/02/01 01:16:39;;;;;;;4.50;1.87;;;;;;;5.37;59.48;99726.03;5264270;27;20091;-86
2023/02/01 01:19:04;;;;;;;7.53;2.20;;;;;;;5.22;59.47;99716.75;5264444;27;20148;-86
2023/02/01 01:21:30;;;;;;;5.32;2.25;;;;;;;4.94;59.46;99702.41;5282915;27;20115;-86
2023/02/01 01:23:55;;;;;;;8.93;3.22;;;;;;;5.03;59.46;99697.16;5264327;27;20053;-87
2023/02/01 01:26:23;;;;;;;2.08;1.12;;;;;;;5.12;59.46;99685.88;5264169;27;20065;-86
2023/02/01 01:28:48;;;;;;;5.00;1.42;;;;;;;4.90;59.45;99685.25;5264306;27;20766;-86
2023/02/01 01:31:14;;;;;;;2.33;0.98;;;;;;;4.91;59.45;99694.69;5264237;27;20076;-86
2023/02/01 01:33:40;;;;;;;2.80;1.30;;;;;;;4.86;59.45;99689.59;5282180;27;20074;-86
2023/02/01 01:36:06;;;;;;;2.87;1.10;;;;;;;4.79;59.45;99677.66;5282041;27;20686;-86
2023/02/01 01:38:32;;;;;;;4.37;2.20;;;;;;;4.94;59.46;99674.03;5282401;27;20116;-86
2023/02/01 01:40:57;;;;;;;4.60;1.35;;;;;;;5.06;59.46;99678.22;5282516;27;20057;-86
2023/02/01 01:43:23;;;;;;;5.12;1.23;;;;;;;5.00;59.45;99667.97;5263925;27;20072;-86
2023/02/01 01:45:49;;;;;;;2.75;1.23;;;;;;;5.08;59.46;99668.75;5264112;27;20440;-84
2023/02/01 01:48:24;;;;;;;2.92;1.30;;;;;;;5.03;59.46;99670.53;5263967;27;20057;-85
2023/02/01 01:50:52;;;;;;;5.43;1.80;;;;;;;5.08;59.45;99685.06;5257280;27;185550;-84
2023/02/01 01:53:24;;;;;;;3.78;1.23;;;;;;;5.01;59.47;99673.13;5282039;27;20059;-84
2023/02/01 01:55:49;;;;;;;6.20;1.42;;;;;;;5.13;59.46;99685.88;5281868;27;20052;-86
2023/02/01 01:58:17;;;;;;;2.37;1.33;;;;;;;5.04;59.46;99691.13;5281475;27;20797;-84
2023/02/01 02:00:43;;;;;;;4.45;1.27;;;;;;;4.93;59.46;99686.06;5281915;27;20057;-86
2023/02/01 02:03:17;;;;;;;3.25;1.27;;;;;;;4.99;59.46;99685.19;5282340;27;20402;-86
2023/02/01 02:05:42;;;;;;;3.60;1.15;;;;;;;5.07;59.46;99683.38;5282513;27;20413;-85
2023/02/01 02:08:08;;;;;;;2.15;1.33;;;;;;;4.97;59.45;99693.78;5275006;27;20109;-84
2023/02/01 02:13:17;;;;;;;5.20;1.20;;;;;;;4.93;59.46;99693.81;5284968;27;20119;-85
2023/02/01 02:15:53;;;;;;;2.65;1.37;;;;;;;4.87;59.46;99687.87;5263575;27;20104;-86
2023/02/01 02:18:27;;;;;;;4.80;1.17;;;;;;;4.83;59.44;99689.63;5282481;27;20064;-85
2023/02/01 02:21:10;;;;;;;2.75;1.25;;;;;;;4.71;59.43;99684.56;5263969;27;20175;-85
2023/02/01 02:23:45;;;;;;;4.97;1.60;;;;;;;4.79;59.45;99685.38;5282190;27;20056;-85
2023/02/01 02:26:20;;;;;;;4.30;1.20;;;;;;;4.87;59.46;99687.87;5300115;27;20095;-85
2023/02/01 02:29:07;;;;;;;3.83;1.45;;;;;;;4.94;59.46;99686.94;5300055;27;20061;-85
2023/02/01 02:31:54;;;;;;;2.28;1.00;;;;;;;4.98;59.45;99664.56;5300445;27;20108;-85
2023/02/01 02:34:28;;;;;;;1.90;1.12;;;;;;;5.00;59.45;99673.13;5282292;27;20102;-86
2023/02/01 02:37:28;;;;;;;2.67;0.90;;;;;;;4.78;59.44;99668.19;5282044;27;20044;-85
2023/02/01 02:40:21;;;;;;;4.85;1.17;;;;;;;4.77;59.44;99661.34;5282043;27;20119;-85
2023/02/01 02:49:20;;;;;;;2.72;1.48;;;;;;;4.67;59.44;99672.59;5233888;27;20036;-85
2023/02/01 02:54:46;;;;;;;3.15;1.02;;;;;;;4.69;59.44;99670.84;5257043;27;20211;-85
2023/02/01 03:05:50;;;;;;;3.95;1.45;;;;;;;4.77;59.44;99668.22;5285105;27;20079;-86
2023/02/01 03:08:25;;;;;;;2.40;1.15;;;;;;;4.67;59.44;99670.00;5246030;27;20053;-86
2023/02/01 03:10:53;;;;;;;1.70;1.15;;;;;;;4.76;59.44;99669.09;5281791;27;20049;-86
2023/02/01 03:13:38;;;;;;;6.90;1.37;;;;;;;4.73;59.44;99666.50;5282064;27;20414;-86
2023/02/01 03:16:04;;;;;;;2.05;1.10;;;;;;;4.83;59.44;99657.84;5263837;27;20077;-85
2023/02/01 03:19:25;;;;;;;3.33;1.35;;;;;;;4.87;59.46;99654.34;5301816;27;20168;-85
2023/02/01 03:21:52;;;;;;;2.17;1.37;;;;;;;4.99;59.45;99656.81;5255966;27;20116;-86
2023/02/01 03:24:39;;;;;;;2.30;1.27;;;;;;;5.05;59.46;99654.16;5282023;27;20072;-86
2023/02/01 03:27:06;;;;;;;1.65;0.95;;;;;;;5.12;59.47;99660.09;5282765;27;20403;-86
2023/02/01 03:29:37;;;;;;;3.05;1.12;;;;;;;5.35;59.48;99665.84;5281780;27;20050;-85
2023/02/01 03:32:04;;;;;;;1.73;0.93;;;;;;;5.15;59.46;99665.22;5264008;27;20052;-85
2023/02/01 03:34:29;;;;;;;2.97;1.10;;;;;;;5.20;59.47;99673.75;5273839;27;20024;-86
2023/02/01 03:37:06;;;;;;;1.60;0.90;;;;;;;5.09;59.46;99662.72;5276522;27;20147;-85
2023/02/01 03:39:38;;;;;;;1.90;1.33;;;;;;;5.10;59.46;99667.00;5268244;27;20049;-84
2023/02/01 03:42:33;;;;;;;1.95;1.08;;;;;;;5.15;59.46;99657.47;5272548;27;20059;-86
2023/02/01 03:45:10;;;;;;;3.78;1.80;;;;;;;5.15;59.46;99665.22;5299649;27;20087;-85
2023/02/01 03:47:38;;;;;;;1.48;0.80;;;;;;;5.11;59.46;99656.66;5263516;27;20487;-86
2023/02/01 03:50:09;;;;;;;1.10;0.80;;;;;;;5.16;59.46;99651.44;5259551;27;20063;-86
2023/02/01 03:53:01;;;;;;;2.40;1.20;;;;;;;5.04;59.46;99657.59;5303460;27;20071;-87
2023/02/01 03:55:27;;;;;;;2.22;1.10;;;;;;;5.11;59.46;99656.66;5287949;27;20064;-85
2023/02/01 03:58:06;;;;;;;1.50;0.93;;;;;;;5.08;59.46;99653.25;5285530;27;20049;-86
2023/02/01 04:00:32;;;;;;;2.30;1.23;;;;;;;5.11;59.46;99672.13;5286126;27;20053;-86
2023/02/01 04:02:57;;;;;;;2.55;1.30;;;;;;;5.06;59.46;99673.91;5285443;27;20441;-86
2023/02/01 04:05:22;;;;;;;2.58;0.82;;;;;;;5.27;59.48;99665.09;5285368;27;20103;-86
2023/02/01 04:07:48;;;;;;;3.78;1.20;;;;;;;5.24;59.47;99665.97;5267161;27;20081;-86
2023/02/01 04:10:13;;;;;;;3.28;1.45;;;;;;;5.22;59.46;99672.87;5267283;27;20052;-85
2023/02/01 04:12:39;;;;;;;2.20;1.00;;;;;;;5.21;59.46;99680.66;5285236;27;20103;-86
2023/02/01 04:15:05;;;;;;;1.00;0.80;;;;;;;5.36;59.47;99674.44;5267214;27;20123;-85
2023/02/01 04:17:30;;;;;;;3.45;1.30;;;;;;;5.12;59.47;99668.69;5267216;27;20060;-86
2023/02/01 04:19:56;;;;;;;2.20;1.00;;;;;;;5.08;59.46;99668.75;5285530;27;20345;-85
2023/02/01 04:22:21;;;;;;;2.22;1.23;;;;;;;5.21;59.47;99670.31;5268275;27;20508;-86
2023/02/01 04:24:46;;;;;;;1.73;1.10;;;;;;;5.20;59.47;99668.59;5267890;27;20075;-86
2023/02/01 04:27:12;;;;;;;2.58;1.30;;;;;;;5.33;59.48;99659.84;5286063;27;20083;-86
2023/02/01 04:29:38;;;;;;;1.85;1.15;;;;;;;5.37;59.48;99664.09;5268456;27;20119;-86
2023/02/01 04:32:04;;;;;;;1.58;1.00;;;;;;;5.27;59.48;99675.41;5286088;27;20073;-85
2023/02/01 04:34:29;;;;;;;1.95;1.05;;;;;;;5.18;59.47;99680.66;5286013;27;20052;-84
2023/02/01 04:36:55;;;;;;;1.87;1.05;;;;;;;5.12;59.46;99685.88;5267757;27;20063;-84
2023/02/01 04:39:20;;;;;;;2.45;1.23;;;;;;;5.14;59.46;99674.69;5267724;27;20096;-84
2023/02/01 04:41:46;;;;;;;2.75;1.33;;;;;;;4.99;59.46;99674.88;5267759;27;20095;-85
2023/02/01 04:44:17;;;;;;;2.80;1.00;;;;;;;5.03;59.46;99671.38;5285444;27;20167;-86
2023/02/01 04:46:44;;;;;;;1.55;1.30;;;;;;;5.04;59.46;99682.56;5268151;27;20060;-85
2023/02/01 04:49:10;;;;;;;2.58;1.10;;;;;;;5.01;59.46;99678.28;5268335;27;20112;-85
2023/02/01 04:51:35;;;;;;;2.03;1.05;;;;;;;5.01;59.46;99687.75;5267834;27;20111;-86
2023/02/01 04:54:01;;;;;;;3.15;1.35;;;;;;;5.04;59.46;99690.28;5286153;27;20402;-86
2023/02/01 04:56:26;;;;;;;2.15;1.33;;;;;;;4.94;59.46;99679.19;5267923;27;20075;-86
2023/02/01 04:58:52;;;;;;;2.12;1.10;;;;;;;4.78;59.44;99681.09;5268073;27;20100;-86
2023/02/01 05:01:17;;;;;;;2.33;1.33;;;;;;;4.90;59.45;99690.41;5286428;27;20092;-86
2023/02/01 05:03:43;;;;;;;1.95;1.23;;;;;;;4.99;59.45;99690.34;5286263;27;20060;-85
2023/02/01 05:06:08;;;;;;;2.90;1.30;;;;;;;4.96;59.46;99692.06;5267774;27;20135;-85
2023/02/01 05:08:33;;;;;;;1.87;0.95;;;;;;;4.96;59.45;99682.59;5285976;27;20072;-85
2023/02/01 05:11:02;;;;;;;1.45;1.05;;;;;;;4.85;59.44;99675.00;5267778;27;20056;-87
2023/02/01 05:16:11;;;;;;;2.65;1.30;;;;;;;5.02;59.46;99677.41;5291845;27;20440;-86
2023/02/01 05:18:37;;;;;;;2.78;1.75;;;;;;;4.93;59.45;99677.47;5268193;27;20100;-85
2023/02/01 05:21:02;;;;;;;2.10;1.33;;;;;;;5.00;59.45;99686.03;5267360;27;20463;-85
2023/02/01 05:23:27;;;;;;;2.20;1.08;;;;;;;5.10;59.46;99682.47;5267874;27;20057;-87
2023/02/01 05:25:58;;;;;;;3.28;1.48;;;;;;;5.16;59.46;99672.06;5268023;27;20105;-86
2023/02/01 05:28:23;;;;;;;3.40;1.50;;;;;;;5.12;59.46;99671.25;5267984;27;20762;-86
2023/02/01 05:30:49;;;;;;;3.00;1.40;;;;;;;5.21;59.46;99666.00;5267675;27;20092;-86
2023/02/01 05:33:14;;;;;;;2.37;1.52;;;;;;;5.26;59.47;99667.69;5267759;27;20101;-85
2023/02/01 05:35:40;;;;;;;2.97;1.62;;;;;;;5.22;59.46;99667.72;5267719;27;20147;-86
2023/02/01 05:38:05;;;;;;;3.03;1.50;;;;;;;5.24;59.46;99665.13;5267768;27;20052;-85
2023/02/01 05:40:30;;;;;;;2.50;1.65;;;;;;;5.27;59.47;99666.81;5288044;27;20096;-86
2023/02/01 05:42:56;;;;;;;2.90;1.35;;;;;;;5.29;59.47;99665.06;5267703;27;20118;-86
2023/02/01 05:45:21;;;;;;;1.92;1.20;;;;;;;5.28;59.47;99673.69;5285996;27;20093;-86
2023/02/01 05:47:47;;;;;;;3.67;1.35;;;;;;;5.18;59.47;99670.34;5267785;27;20104;-86
2023/02/01 05:50:12;;;;;;;2.97;1.60;;;;;;;5.22;59.46;99678.03;5267488;27;20100;-86
2023/02/01 05:52:38;;;;;;;3.33;1.40;;;;;;;5.02;59.46;99682.56;5285973;27;20052;-86
2023/02/01 05:55:03;;;;;;;2.67;1.20;;;;;;;5.06;59.46;99683.38;5286011;27;20350;-86
2023/02/01 05:57:29;;;;;;;3.95;1.23;;;;;;;5.00;59.45;99686.88;5267954;27;20412;-85
2023/02/01 05:59:55;;;;;;;1.58;1.00;;;;;;;4.98;59.46;99683.47;5286223;27;20085;-85
2023/02/01 06:02:21;;;;;;;2.97;1.27;;;;;;;5.22;59.46;99684.94;5267635;27;20057;-86
2023/02/01 06:04:46;;;;;;;3.92;1.70;;;;;;;5.24;59.46;99685.78;5267940;27;20075;-86
2023/02/01 06:07:12;;;;;;;2.12;1.50;;;;;;;5.28;59.47;99691.75;5267846;27;20096;-86
2023/02/01 06:09:37;;;;;;;2.53;1.40;;;;;;;5.15;59.46;99691.88;5267984;27;20096;-86
2023/02/01 06:12:03;;;;;;;4.97;1.30;;;;;;;5.13;59.47;99693.59;5267598;27;20119;-85
2023/02/01 06:14:29;;;;;;;2.75;1.52;;;;;;;5.10;59.46;99688.50;5267909;27;20123;-87
2023/02/01 06:16:54;;;;;;;2.30;1.10;;;;;;;5.16;59.47;99701.31;5267712;27;20101;-86
2023/02/01 06:19:20;;;;;;;2.45;1.48;;;;;;;5.21;59.47;99709.03;5286204;27;20048;-86
2023/02/01 06:21:46;;;;;;;3.15;1.30;;;;;;;5.05;59.46;99708.31;5285780;27;20087;-86
2023/02/01 06:24:12;;;;;;;4.85;1.70;;;;;;;5.12;59.47;99711.69;5267840;27;20457;-86
2023/02/01 06:26:38;;;;;;;2.47;1.33;;;;;;;5.18;59.47;99722.78;5267638;27;20053;-86
2023/02/01 06:29:04;;;;;;;2.08;1.05;;;;;;;5.03;59.46;99717.81;5268076;27;20111;-86
2023/02/01 06:31:31;;;;;;;2.70;1.20;;;;;;;5.09;59.46;99712.59;5286053;27;20634;-86
2023/02/01 06:33:57;;;;;;;3.97;1.40;;;;;;;5.28;59.47;99717.56;5268182;27;20095;-86
2023/02/01 06:36:22;;;;;;;4.20;1.80;;;;;;;5.24;59.48;99717.59;5286061;27;20444;-86
2023/02/01 06:38:48;;;;;;;3.70;1.75;;;;;;;5.16;59.47;99719.37;5267570;27;20377;-86
2023/02/01 06:41:13;;;;;;;2.53;1.60;;;;;;;5.32;59.48;99714.06;5267672;27;20086;-85
2023/02/01 06:43:38;;;;;;;1.98;1.45;;;;;;;5.32;59.48;99724.38;5285878;27;20049;-86
2023/02/01 06:46:06;;;;;;;2.85;1.80;;;;;;;5.12;59.46;99724.59;5267623;27;20052;-86
2023/02/01 06:48:32;;;;;;;4.22;1.40;;;;;;;5.32;59.48;99724.38;5267928;27;20476;-86
2023/02/01 06:50:57;;;;;;;3.47;1.87;;;;;;;5.30;59.47;99728.72;5281679;27;20068;-86
2023/02/01 06:53:23;;;;;;;3.45;1.85;;;;;;;5.33;59.48;99729.53;5263919;27;20053;-86
2023/02/01 06:56:08;;;;;;;3.87;1.85;;;;;;;5.60;59.48;99730.94;5263898;27;20057;-86
2023/02/01 06:58:34;;;;;;;2.75;1.80;;;;;;;5.56;59.49;99742.16;5281314;27;20045;-86
2023/02/01 07:01:06;;;;;;;3.25;1.75;;;;;;;5.45;59.48;99733.72;5262275;27;20075;-86
2023/02/01 07:03:31;;;;;;;3.65;1.90;;;;;;;5.61;59.49;99737.81;5265019;27;20057;-86
2023/02/01 07:05:58;;;;;;;2.25;1.37;;;;;;;5.45;59.48;99744.03;5283794;27;20424;-86
2023/02/01 07:08:24;;;;;;;4.20;1.58;;;;;;;5.51;59.48;99738.78;5263517;27;20061;-86
2023/02/01 07:10:50;;;;;;;2.75;1.45;;;;;;;5.59;59.49;99736.09;5262994;27;20119;-86
2023/02/01 07:13:15;;;;;;;4.22;1.67;;;;;;;5.67;59.49;99739.44;5262825;27;20065;-86
2023/02/01 07:15:40;;;;;;;2.10;1.52;;;;;;;5.67;59.49;99742.03;5262825;27;20389;-86
2023/02/01 07:18:06;;;;;;;3.25;1.70;;;;;;;5.83;59.51;99749.56;5262983;27;20355;-86
2023/02/01 07:20:31;;;;;;;2.87;1.50;;;;;;;5.79;59.50;99755.66;5263082;27;20490;-86
2023/02/01 07:22:57;;;;;;;4.15;1.62;;;;;;;5.83;59.50;99756.47;5263205;27;20083;-86
2023/02/01 07:25:23;;;;;;;2.80;1.40;;;;;;;5.95;59.51;99765.84;5263043;27;20394;-86
2023/02/01 07:27:48;;;;;;;2.10;1.30;;;;;;;6.07;59.52;99761.34;5263179;27;20104;-86
2023/02/01 07:30:14;;;;;;;2.45;1.60;;;;;;;6.05;59.51;99760.50;5263017;27;20345;-86
2023/02/01 07:32:39;;;;;;;3.58;1.40;;;;;;;6.18;59.52;99758.63;5281096;27;20379;-86
2023/02/01 07:35:05;;;;;;;2.35;1.33;;;;;;;6.37;59.54;99765.22;5280982;27;20136;-86
2023/02/01 07:37:30;;;;;;;2.92;1.17;;;;;;;6.38;59.54;99766.94;5299511;27;20053;-86
2023/02/01 07:39:56;;;;;;;1.48;1.10;;;;;;;6.46;59.54;99765.09;5280896;27;20061;-87
2023/02/01 07:42:21;;;;;;;3.37;1.50;;;;;;;6.37;59.53;99780.72;5281365;27;20107;-87
2023/02/01 07:44:47;;;;;;;2.37;1.40;;;;;;;6.52;59.54;99776.22;5263217;27;20077;-87
2023/02/01 07:47:12;;;;;;;4.70;1.55;;;;;;;6.73;59.56;99771.56;5280990;27;20077;-85
2023/02/01 07:49:37;;;;;;;2.25;1.58;;;;;;;6.87;59.56;99761.00;5281860;27;20071;-86
2023/02/01 07:52:03;;;;;;;7.28;1.67;;;;;;;6.96;59.57;99758.25;5266436;27;20109;-86
2023/02/01 07:54:28;;;;;;;2.35;1.70;;;;;;;6.89;59.56;99773.91;5323056;27;20392;-86
2023/02/01 07:56:54;;;;;;;3.15;1.70;;;;;;;6.92;59.56;99766.97;5285802;27;20100;-87
2023/02/01 07:59:19;;;;;;;3.87;1.55;;;;;;;6.86;59.56;99764.47;5267348;27;20060;-86
2023/02/01 08:01:45;;;;;;;4.15;1.67;;;;;;;6.82;59.56;99773.16;5285200;27;20811;-86
2023/02/01 08:04:13;;;;;;;3.47;1.45;;;;;;;6.95;59.57;99763.47;5285576;27;20110;-86
2023/02/01 08:06:39;;;;;;;5.18;1.85;;;;;;;7.02;59.57;99765.91;5285751;27;20377;-86
2023/02/01 08:09:04;;;;;;;3.10;1.50;;;;;;;6.98;59.57;99768.56;5285887;27;20091;-84
2023/02/01 08:11:30;;;;;;;2.50;1.40;;;;;;;6.89;59.57;99767.00;5285749;27;20108;-87
2023/02/01 08:13:55;;;;;;;2.60;1.62;;;;;;;6.84;59.56;99765.34;5268095;27;20064;-86
2023/02/01 08:16:21;;;;;;;4.60;1.90;;;;;;;6.68;59.55;99773.37;5277291;27;20058;-86
2023/02/01 08:18:47;;;;;;;2.80;1.50;;;;;;;6.73;59.56;99776.75;5273735;27;20076;-86
2023/02/01 08:21:14;;;;;;;2.62;1.50;;;;;;;6.76;59.55;99781.88;5268682;27;20084;-85
2023/02/01 08:23:40;;;;;;;3.25;1.75;;;;;;;6.84;59.56;99780.87;5285366;27;20790;-86
2023/02/01 08:26:14;;;;;;;3.40;1.60;;;;;;;6.81;59.56;99799.91;5267704;27;20053;-86
2023/02/01 08:28:40;;;;;;;2.45;1.65;;;;;;;6.94;59.56;99800.56;5303792;27;20444;-86
2023/02/01 08:31:10;;;;;;;2.75;1.83;;;;;;;6.95;59.57;99797.09;5285435;27;20074;-85
2023/02/01 08:33:37;;;;;;;3.42;1.98;;;;;;;6.95;59.57;99804.84;5284966;27;20098;-86
2023/02/01 08:36:03;;;;;;;2.45;1.70;;;;;;;6.85;59.56;99808.47;5285834;27;20394;-85
2023/02/01 08:38:29;;;;;;;4.68;2.00;;;;;;;6.87;59.56;99801.56;5285586;27;20719;-85
2023/02/01 08:40:54;;;;;;;3.62;1.37;;;;;;;7.13;59.58;99806.28;5323238;27;20048;-84
2023/02/01 08:43:20;;;;;;;3.03;1.37;;;;;;;7.16;59.57;99809.69;5285725;27;20088;-85
2023/02/01 08:45:46;;;;;;;4.10;1.62;;;;;;;7.08;59.57;99816.69;5285395;27;20148;-85
2023/02/01 08:48:11;;;;;;;4.62;2.00;;;;;;;7.09;59.57;99815.81;5285858;27;20106;-85
2023/02/01 08:50:36;;;;;;;4.45;1.70;;;;;;;7.19;59.58;99795.81;5266894;27;20076;-86
2023/02/01 08:53:02;;;;;;;2.85;1.90;;;;;;;7.56;59.60;99804.63;5267118;27;20082;-85
2023/02/01 08:55:28;;;;;;;2.50;1.40;;;;;;;7.56;59.60;99802.03;5285803;27;20099;-86
2023/02/01 08:57:53;;;;;;;6.95;2.20;;;;;;;7.59;59.60;99802.00;5267166;27;20061;-86
2023/02/01 09:00:19;;;;;;;2.50;1.40;;;;;;;7.69;59.60;99787.13;5267015;27;20150;-86
2023/02/01 09:02:44;;;;;;;3.45;1.65;;;;;;;7.86;59.61;99781.59;5285379;27;20090;-86
2023/02/01 09:05:10;;;;;;;2.50;1.60;;;;;;;7.93;59.62;99790.94;5273262;27;20103;-86
2023/02/01 09:07:36;;;;;;;2.95;1.70;;;;;;;7.87;59.62;99785.91;5281715;27;20419;-86
2023/02/01 09:10:02;;;;;;;3.45;1.65;;;;;;;7.98;59.62;99783.94;5285444;27;20378;-84
2023/02/01 09:12:28;;;;;;;2.67;1.42;;;;;;;8.19;59.63;99783.47;5286590;27;20044;-85
2023/02/01 09:14:55;;;;;;;3.97;1.83;;;;;;;8.13;59.63;99773.25;5285248;27;20194;-85
2023/02/01 09:17:21;;;;;;;4.57;1.50;;;;;;;8.13;59.63;99774.97;5285418;27;20052;-85
2023/02/01 09:19:46;;;;;;;2.97;1.30;;;;;;;8.23;59.64;99779.91;5267194;27;20484;-85
2023/02/01 09:22:12;;;;;;;1.95;1.27;;;;;;;8.20;59.63;99790.38;5284776;27;20095;-85
2023/02/01 09:24:37;;;;;;;3.15;1.80;;;;;;;8.27;59.64;99771.19;5266431;27;20045;-85
2023/02/01 09:27:03;;;;;;;3.15;1.90;;;;;;;8.29;59.63;99769.44;5266809;27;20053;-85
2023/02/01 09:29:28;;;;;;;4.47;1.60;;;;;;;8.43;59.64;99781.25;5266314;27;20401;-84
2023/02/01 09:31:54;;;;;;;6.93;2.03;;;;;;;8.61;59.66;99783.44;5267120;27;20060;-85
2023/02/01 09:34:19;;;;;;;3.37;1.85;;;;;;;8.62;59.66;99792.91;5285236;27;20342;-85
2023/02/01 09:36:44;;;;;;;6.12;2.17;;;;;;;8.54;59.65;99806.09;5267136;27;20442;-85
2023/02/01 09:39:10;;;;;;;3.10;1.95;;;;;;;8.73;59.66;99797.84;5287325;27;20111;-85
2023/02/01 09:41:44;;;;;;;3.12;1.40;;;;;;;8.90;59.67;99806.09;5293851;27;20144;-84
2023/02/01 09:44:28;;;;;;;4.53;1.70;;;;;;;8.98;59.68;99805.88;5313015;27;20041;-85
2023/02/01 09:46:56;;;;;;;3.20;1.70;;;;;;;8.98;59.68;99811.94;5304087;27;20056;-86
2023/02/01 09:49:25;;;;;;;3.33;1.73;;;;;;;9.05;59.68;99813.50;5286003;27;20056;-85
2023/02/01 09:51:51;;;;;;;5.30;1.87;;;;;;;8.95;59.67;99804.22;5281719;27;20049;-85
2023/02/01 09:54:20;;;;;;;3.65;1.80;;;;;;;8.66;59.67;99812.72;5281832;27;20100;-85
2023/02/01 09:56:54;;;;;;;3.12;1.75;;;;;;;8.66;59.67;99815.31;5281910;27;20080;-85
2023/02/01 09:59:34;;;;;;;4.68;2.15;;;;;;;8.65;59.66;99815.34;5263856;27;20057;-85
2023/02/01 10:02:01;;;;;;;3.97;1.92;;;;;;;8.57;59.65;99813.78;5263929;27;20740;-85
2023/02/01 10:04:26;;;;;;;3.33;2.20;;;;;;;8.64;59.66;99801.53;5263280;27;20055;-85
2023/02/01 10:07:33;;;;;;;4.07;2.20;;;;;;;8.69;59.67;99804.00;5262422;27;23834;-85
2023/02/01 10:10:08;;;;;;;2.75;1.67;;;;;;;8.81;59.66;99795.94;5212016;27;20061;-85
2023/02/01 10:12:43;;;;;;;3.97;2.08;;;;;;;8.84;59.67;99793.25;5301313;27;20418;-85
2023/02/01 10:15:41;;;;;;;7.57;2.08;;;;;;;8.97;59.67;99775.62;5281667;27;20083;-86
2023/02/01 10:18:35;;;;;;;2.35;1.77;;;;;;;9.09;59.68;99767.53;5271659;27;20085;-85
2023/02/01 10:21:27;;;;;;;4.40;2.12;;;;;;;9.06;59.68;99742.50;5281424;27;20132;-85
2023/02/01 10:24:05;;;;;;;4.82;2.00;;;;;;;9.03;59.68;99742.59;5301074;27;20091;-86
2023/02/01 10:26:36;;;;;;;5.70;2.35;;;;;;;8.90;59.68;99755.03;5301259;27;20394;-86
2023/02/01 10:29:03;;;;;;;4.97;2.28;;;;;;;8.72;59.66;99749.44;5281725;27;20056;-85
2023/02/01 10:31:30;;;;;;;4.72;2.70;;;;;;;8.51;59.66;99749.03;5263307;27;20445;-85
2023/02/01 10:34:00;;;;;;;5.18;2.25;;;;;;;8.71;59.67;99745.97;5262811;27;20063;-85
2023/02/01 10:36:30;;;;;;;;;;;;;;;8.91;59.68;99738.56;5281701;27;20061;-86
2023/02/01 10:38:57;;;;;;;7.93;2.75;;;;;;;9.08;59.69;99734.69;5299871;27;20580;-85
2023/02/01 10:41:23;;;;;;;4.25;2.60;;;;;;;9.25;59.69;99732.50;5281745;27;20061;-85
2023/02/01 10:43:52;;;;;;;2.97;1.87;;;;;;;9.59;59.71;99719.41;5280792;27;20056;-86
2023/02/01 10:46:18;;;;;;;5.00;2.45;;;;;;;9.68;59.72;99723.50;5262349;27;20697;-85
2023/02/01 10:48:43;;;;;;;4.03;2.47;;;;;;;9.63;59.71;99723.62;5299790;27;20133;-86
2023/02/01 10:51:12;;;;;;;4.90;2.10;;;;;;;9.60;59.71;99730.66;5284442;27;20146;-86
2023/02/01 10:53:42;;;;;;;5.23;2.50;;;;;;;9.35;59.71;99733.94;5285105;27;20547;-85
2023/02/01 10:56:11;;;;;;;7.85;3.28;;;;;;;9.22;59.69;99728.22;5285161;27;20098;-85
2023/02/01 10:58:44;;;;;;;5.47;2.87;;;;;;;9.22;59.70;99724.75;5284768;27;20116;-85
2023/02/01 11:01:16;;;;;;;5.85;3.35;;;;;;;9.29;59.70;99728.91;5311739;27;20075;-86
2023/02/01 11:03:51;;;;;;;4.60;2.85;;;;;;;9.45;59.70;99718.94;5278056;27;20445;-85
2023/02/01 11:06:26;;;;;;;4.72;2.40;;;;;;;9.44;59.70;99712.88;5268196;27;20066;-86
2023/02/01 11:09:12;;;;;;;4.50;2.67;;;;;;;9.62;59.72;99706.34;5303205;27;20061;-85
2023/02/01 11:11:47;;;;;;;5.68;2.78;;;;;;;9.59;59.71;99700.38;5287441;27;20127;-85
2023/02/01 11:14:25;;;;;;;4.00;2.33;;;;;;;9.71;59.71;99700.03;5302817;27;20120;-84
2023/02/01 11:17:27;;;;;;;5.85;2.85;;;;;;;9.81;59.73;99685.84;5322920;27;20075;-85
2023/02/01 11:20:22;;;;;;;7.57;2.42;;;;;;;10.02;59.74;99682.59;5285475;27;20053;-86
2023/02/01 11:22:49;;;;;;;4.40;2.85;;;;;;;10.13;59.74;99685.72;5292914;27;20432;-85
2023/02/01 11:25:15;;;;;;;4.62;2.75;;;;;;;10.10;59.74;99671.97;5284572;27;20120;-85
2023/02/01 11:27:41;;;;;;;4.72;2.80;;;;;;;10.15;59.74;99670.91;5284974;27;20202;-85
2023/02/01 11:30:07;;;;;;;4.20;2.37;;;;;;;10.05;59.74;99669.50;5284813;27;20061;-84
2023/02/01 11:32:35;;;;;;;4.57;2.70;;;;;;;10.18;59.75;99664.78;5284646;27;20061;-85
2023/02/01 11:35:08;;;;;;;4.40;2.50;;;;;;;10.00;59.74;99660.16;5285439;27;20079;-86
2023/02/01 11:37:36;;;;;;;5.53;2.90;;;;;;;10.11;59.74;99658.91;5267283;27;20071;-85
2023/02/01 11:40:17;;;;;;;7.37;3.12;;;;;;;9.93;59.73;99662.06;5302832;27;20061;-85
2023/02/01 11:42:57;;;;;;;8.23;3.53;;;;;;;9.94;59.74;99645.59;5303024;27;20425;-86
2023/02/01 11:45:27;;;;;;;5.90;2.58;;;;;;;10.06;59.74;99647.81;5266747;27;20417;-85
2023/02/01 11:47:53;;;;;;;6.25;2.87;;;;;;;9.99;59.73;99643.69;5284441;27;20072;-85
2023/02/01 11:50:25;;;;;;;5.90;2.80;;;;;;;9.84;59.72;99636.38;5266173;27;20124;-84
2023/02/01 11:53:15;;;;;;;7.18;2.30;;;;;;;9.93;59.73;99628.28;5285373;27;20095;-85
2023/02/01 11:56:08;;;;;;;4.00;1.90;;;;;;;9.91;59.73;99635.28;5302810;27;20417;-85
2023/02/01 11:59:04;;;;;;;4.30;2.22;;;;;;;9.82;59.72;99645.97;5303181;27;20310;-86
2023/02/01 12:01:52;;;;;;;4.55;2.05;;;;;;;9.60;59.71;99630.16;5284738;27;20065;-85
2023/02/01 12:04:39;;;;;;;4.10;2.00;;;;;;;9.13;59.69;99629.78;5322451;27;20060;-85
2023/02/01 12:07:29;;;;;;;3.50;2.00;;;;;;;8.81;59.67;99627.25;5302580;27;20449;-85
2023/02/01 12:10:13;;;;;;;3.60;2.40;;;;;;;8.78;59.67;99628.16;5302709;27;20048;-85
2023/02/01 12:12:54;;;;;;;3.47;1.90;;;;;;;8.53;59.66;99633.16;5284541;27;20065;-86
2023/02/01 12:15:22;;;;;;;3.25;1.73;;;;;;;8.44;59.65;99648.94;5322699;27;20057;-85